CheckWX is a tool to help pilots better visualize weather data.  It is not intended as a substitute for an official pre-flight weather briefing.

00:32:42 UTC

KOPF TAF
Miami-Opa Locka Executive Airport
Miami, Florida, USA
KOPF 020608Z 0206/0306 09006KT P6SM SCT025 BKN250 FM021400 09011KT P6SM VCSH SCT025 BKN050 FM021800 09014KT P6SM VCSH SCT025 BKN080

Jun-2@
06:00 UTC

Jun-2 @ 06:00 UTC

Jun-2@
14:00 UTC

Jun-2 @ 14:00 UTC

TAF KOPF 020608Z 0206/0306 09006KT P6SM SCT025 BKN250

Expired

Wind
  • 090° at 6 KTS
Cloud Levels
  • Scattered at 2,500' AGL
  • Broken at 25,000' AGL

Jun-2@
14:00 UTC

Jun-2 @ 14:00 UTC

Jun-2@
18:00 UTC

Jun-2 @ 18:00 UTC

FM021400 09011KT P6SM VCSH SCT025 BKN050

Expired

Wind
  • 090° at 11 KTS
Conditions
Area Showers
Cloud Levels
  • Scattered at 2,500' AGL
  • Broken at 5,000' AGL

Jun-2@
18:00 UTC

Jun-2 @ 18:00 UTC

Jun-3@
06:00 UTC

Jun-3 @ 06:00 UTC

FM021800 09014KT P6SM VCSH SCT025 BKN080

From

From Standard forecast or significant change

Wind
  • 090° at 14 KTS
Conditions
Area Showers
Cloud Levels
  • Scattered at 2,500' AGL
  • Broken at 8,000' AGL